Time;durP1;ratioP1;P1;durP2;ratioP2;P2;SDS_P1;SDS_P2;PMS_P1;PMS_P2;Temp;Humidity;BMP_temperature;BMP_pressure;BME280_temperature;BME280_humidity;BME280_pressure;Samples;Min_cycle;Max_cycle;Signal;HPM_P1;HPM_P2
2022/08/22 00:00:21;;;;;;;10.38;3.28;;;14.10;99.90;;;;;;5071987;28;20475;-53
2022/08/22 00:03:03;;;;;;;12.10;3.65;;;14.10;99.90;;;;;;5071664;28;20017;-44
2022/08/22 00:06:07;;;;;;;6.75;3.08;;;14.10;99.90;;;;;;5071777;28;20020;-45
2022/08/22 00:08:44;;;;;;;6.93;2.42;;;14.10;99.90;;;;;;5047651;28;20037;-49
2022/08/22 00:11:14;;;;;;;5.18;2.20;;;14.00;99.90;;;;;;5071462;28;20021;-43
2022/08/22 00:13:59;;;;;;;6.82;2.40;;;13.90;99.90;;;;;;5071714;28;20081;-43
2022/08/22 00:16:54;;;;;;;4.35;2.40;;;13.90;99.90;;;;;;5071630;28;20028;-54
2022/08/22 00:19:53;;;;;;;6.93;2.50;;;13.90;99.90;;;;;;5071455;28;20035;-43
2022/08/22 00:22:25;;;;;;;5.28;2.33;;;13.90;99.90;;;;;;5071469;28;20430;-47
2022/08/22 00:25:08;;;;;;;12.45;2.67;;;13.90;99.90;;;;;;5071323;28;20021;-45
2022/08/22 00:27:55;;;;;;;5.90;2.40;;;13.80;99.90;;;;;;5071477;28;20032;-51
2022/08/22 00:30:21;;;;;;;5.30;2.60;;;13.80;99.90;;;;;;5071354;28;20020;-50
2022/08/22 00:32:58;;;;;;;6.95;3.03;;;13.80;99.90;;;;;;5071382;28;20025;-54
2022/08/22 00:35:35;;;;;;;5.78;2.92;;;13.70;99.90;;;;;;5071170;28;20037;-48
2022/08/22 00:38:22;;;;;;;7.70;2.40;;;13.70;99.90;;;;;;5071304;28;20032;-49
2022/08/22 00:41:09;;;;;;;8.32;2.88;;;13.70;99.90;;;;;;5071171;28;20110;-49
2022/08/22 00:44:12;;;;;;;7.57;2.55;;;13.60;99.90;;;;;;5071070;28;20016;-58
2022/08/22 00:47:02;;;;;;;7.40;2.40;;;13.70;99.90;;;;;;5071314;28;20032;-53
2022/08/22 00:49:31;;;;;;;7.47;2.50;;;13.60;99.90;;;;;;5057864;28;20029;-47
2022/08/22 00:52:24;;;;;;;8.37;2.60;;;13.60;99.90;;;;;;5071228;28;20048;-44
2022/08/22 00:55:19;;;;;;;5.65;2.28;;;13.50;99.90;;;;;;5060152;28;20395;-50
2022/08/22 00:58:08;;;;;;;7.25;2.35;;;13.50;99.90;;;;;;5070744;28;20033;-46
2022/08/22 01:00:44;;;;;;;4.82;2.35;;;13.50;99.90;;;;;;5070894;28;20663;-52
2022/08/22 01:04:00;;;;;;;5.47;2.22;;;13.40;99.90;;;;;;5071026;28;20475;-51
2022/08/22 01:06:55;;;;;;;3.67;2.33;;;13.40;99.90;;;;;;4989574;28;20073;-48
2022/08/22 01:09:57;;;;;;;6.38;2.53;;;13.40;99.90;;;;;;5066283;28;20033;-50
2022/08/22 01:12:45;;;;;;;7.00;2.50;;;13.40;99.90;;;;;;5071094;28;20028;-43
2022/08/22 01:15:16;;;;;;;7.63;2.28;;;13.30;99.90;;;;;;5059624;28;20120;-50
2022/08/22 01:17:57;;;;;;;6.63;2.35;;;13.30;99.90;;;;;;5070835;28;20036;-49
2022/08/22 01:20:59;;;;;;;6.13;2.10;;;13.30;99.90;;;;;;5071137;28;20021;-43
2022/08/22 01:23:55;;;;;;;5.13;2.10;;;13.20;99.90;;;;;;5057120;28;20544;-50
2022/08/22 01:26:23;;;;;;;3.15;1.63;;;13.20;99.90;;;;;;5070992;28;20082;-51
2022/08/22 01:29:07;;;;;;;4.60;2.05;;;13.20;99.90;;;;;;5070825;28;20036;-47
2022/08/22 01:31:40;;;;;;;4.18;2.20;;;13.10;99.90;;;;;;5071007;28;20054;-52
2022/08/22 01:34:24;;;;;;;7.07;2.30;;;13.10;99.90;;;;;;5070671;28;20078;-55
2022/08/22 01:37:00;;;;;;;6.93;3.38;;;13.00;99.90;;;;;;5070434;28;20407;-43
2022/08/22 01:39:39;;;;;;;4.53;2.70;;;12.90;99.90;;;;;;5070653;28;20040;-56
2022/08/22 01:42:08;;;;;;;6.13;2.50;;;12.90;99.90;;;;;;5070546;28;20016;-57
2022/08/22 01:44:50;;;;;;;9.87;3.63;;;12.90;99.90;;;;;;5070481;28;20596;-55
2022/08/22 01:47:22;;;;;;;9.85;3.85;;;12.80;99.90;;;;;;5070425;28;20029;-43
2022/08/22 01:49:52;;;;;;;10.57;4.25;;;12.80;99.90;;;;;;5070561;28;20111;-50
2022/08/22 01:52:37;;;;;;;9.18;3.00;;;12.90;99.90;;;;;;5070408;28;20020;-48
2022/08/22 01:55:03;;;;;;;4.25;2.20;;;12.90;99.90;;;;;;5070647;28;20090;-54
2022/08/22 01:57:29;;;;;;;7.47;2.35;;;12.90;99.90;;;;;;5070359;28;20041;-49
2022/08/22 01:59:58;;;;;;;4.43;2.22;;;12.90;99.90;;;;;;5068829;28;20379;-51
2022/08/22 02:02:30;;;;;;;5.88;2.03;;;12.90;99.90;;;;;;5070182;28;20086;-56
2022/08/22 02:05:08;;;;;;;5.20;2.08;;;12.80;99.90;;;;;;5070345;28;20055;-54
2022/08/22 02:08:24;;;;;;;6.35;2.10;;;12.80;99.90;;;;;;5070116;28;20028;-53
2022/08/22 02:11:06;;;;;;;5.10;1.95;;;12.80;99.90;;;;;;5035650;28;20033;-46
2022/08/22 02:13:48;;;;;;;3.72;1.67;;;12.80;99.90;;;;;;5070318;28;20071;-48
2022/08/22 02:16:39;;;;;;;5.10;2.42;;;12.80;99.90;;;;;;5070395;28;20040;-46
2022/08/22 02:19:25;;;;;;;4.93;1.90;;;12.90;99.90;;;;;;5070185;28;20169;-52
2022/08/22 02:22:18;;;;;;;3.35;1.70;;;12.90;99.90;;;;;;5071640;28;20089;-46
2022/08/22 02:25:10;;;;;;;5.43;2.03;;;12.80;99.90;;;;;;5073748;28;20653;-47
2022/08/22 02:27:56;;;;;;;3.67;2.42;;;12.80;99.90;;;;;;5073809;28;20085;-53
2022/08/22 02:30:41;;;;;;;6.10;2.28;;;12.80;99.90;;;;;;5073419;28;20029;-52
2022/08/22 02:33:14;;;;;;;4.88;2.25;;;12.80;99.90;;;;;;5073569;28;20025;-45
2022/08/22 02:35:53;;;;;;;3.15;1.88;;;12.80;99.90;;;;;;5073102;28;20090;-42
2022/08/22 02:38:22;;;;;;;3.42;1.80;;;12.80;99.90;;;;;;5073539;28;20035;-56
2022/08/22 02:41:15;;;;;;;5.40;2.00;;;12.80;99.90;;;;;;5073354;28;20020;-50
2022/08/22 02:43:52;;;;;;;6.53;2.03;;;12.70;99.90;;;;;;5073508;28;20146;-51
2022/08/22 02:46:59;;;;;;;2.60;1.52;;;12.70;99.90;;;;;;5073317;28;20036;-51
2022/08/22 02:49:45;;;;;;;3.50;1.77;;;12.70;99.90;;;;;;5070874;28;20450;-55
2022/08/22 02:52:27;;;;;;;3.20;1.58;;;12.70;99.90;;;;;;5073260;28;20029;-45
2022/08/22 02:55:17;;;;;;;4.97;1.70;;;12.60;99.90;;;;;;5073461;28;20067;-56
2022/08/22 02:57:52;;;;;;;2.58;1.70;;;12.60;99.90;;;;;;5072898;28;20041;-47
2022/08/22 03:00:20;;;;;;;2.70;1.70;;;12.60;99.90;;;;;;5073151;28;20480;-53
2022/08/22 03:02:58;;;;;;;4.83;2.10;;;12.60;99.90;;;;;;5072953;28;20056;-45
2022/08/22 03:05:36;;;;;;;4.28;1.80;;;12.60;99.90;;;;;;5073104;28;20095;-48
2022/08/22 03:08:20;;;;;;;3.95;2.15;;;12.60;99.90;;;;;;5072700;28;20024;-52
2022/08/22 03:11:02;;;;;;;4.82;2.17;;;12.60;99.90;;;;;;5072955;28;20024;-50
2022/08/22 03:13:46;;;;;;;3.20;2.10;;;12.60;99.90;;;;;;5072760;28;20027;-47
2022/08/22 03:16:23;;;;;;;4.60;2.13;;;12.60;99.90;;;;;;5072638;28;20445;-42
2022/08/22 03:19:07;;;;;;;5.25;2.10;;;12.60;99.90;;;;;;5072869;28;20477;-43
2022/08/22 03:21:46;;;;;;;4.72;1.92;;;12.70;99.90;;;;;;5072565;28;20029;-47
2022/08/22 03:24:26;;;;;;;4.53;2.00;;;12.70;99.90;;;;;;5072731;28;20017;-49
2022/08/22 03:27:18;;;;;;;6.03;2.25;;;12.60;99.90;;;;;;5072652;28;20028;-49
2022/08/22 03:30:01;;;;;;;5.15;3.00;;;12.70;99.90;;;;;;5072569;28;20043;-53
2022/08/22 03:32:57;;;;;;;7.80;2.42;;;12.60;99.90;;;;;;5072038;28;20020;-48
2022/08/22 03:35:29;;;;;;;6.70;2.35;;;12.60;99.90;;;;;;5072249;28;20487;-50
2022/08/22 03:38:30;;;;;;;5.80;2.30;;;12.60;99.90;;;;;;5072406;28;20593;-42
2022/08/22 03:41:14;;;;;;;7.45;2.47;;;12.60;99.90;;;;;;5041817;28;20025;-43
2022/08/22 03:43:54;;;;;;;6.53;2.33;;;12.60;99.90;;;;;;5072216;28;20035;-49
2022/08/22 03:46:54;;;;;;;7.03;2.75;;;12.60;99.90;;;;;;5072167;28;20036;-49
2022/08/22 03:49:39;;;;;;;6.65;2.30;;;12.50;99.90;;;;;;5072198;28;20044;-46
2022/08/22 03:53:06;;;;;;;7.05;2.67;;;12.50;99.90;;;;;;5072101;28;20020;-52
2022/08/22 03:55:49;;;;;;;5.13;2.30;;;12.50;99.90;;;;;;5071681;28;20376;-52
2022/08/22 03:58:35;;;;;;;7.50;2.38;;;12.50;99.90;;;;;;5071678;28;20048;-49
2022/08/22 04:01:20;;;;;;;6.05;2.60;;;12.50;99.90;;;;;;5071835;28;20039;-48
2022/08/22 04:04:24;;;;;;;6.03;2.60;;;12.50;99.90;;;;;;5071943;28;20028;-51
2022/08/22 04:07:19;;;;;;;5.05;2.10;;;12.50;99.90;;;;;;5071954;28;20036;-44
2022/08/22 04:10:25;;;;;;;5.22;2.10;;;12.50;99.90;;;;;;5071930;28;20029;-49
2022/08/22 04:13:31;;;;;;;6.30;2.40;;;12.40;99.90;;;;;;5029607;28;20036;-49
2022/08/22 04:16:20;;;;;;;10.00;3.50;;;12.30;99.90;;;;;;5029569;28;20033;-45
2022/08/22 04:18:48;;;;;;;7.70;3.38;;;12.20;99.90;;;;;;5068066;28;20044;-48
2022/08/22 04:21:26;;;;;;;7.95;3.08;;;12.20;99.90;;;;;;5071592;28;20028;-47
2022/08/22 04:24:13;;;;;;;8.55;3.38;;;12.20;99.90;;;;;;5071399;28;20029;-52
2022/08/22 04:27:01;;;;;;;9.00;3.47;;;12.30;99.90;;;;;;5071479;28;20066;-42
2022/08/22 04:29:36;;;;;;;7.35;3.33;;;12.20;99.90;;;;;;5071469;28;20021;-44
2022/08/22 04:32:07;;;;;;;4.80;2.00;;;12.30;99.90;;;;;;5071281;28;20055;-46
2022/08/22 04:34:40;;;;;;;4.40;2.42;;;12.30;99.90;;;;;;5068598;28;20020;-52
2022/08/22 04:37:20;;;;;;;3.60;2.00;;;12.30;99.90;;;;;;5070945;28;20060;-45
2022/08/22 04:40:06;;;;;;;4.75;2.00;;;12.30;99.90;;;;;;5071294;28;20025;-53
2022/08/22 04:42:41;;;;;;;7.65;2.30;;;12.30;99.90;;;;;;5070772;28;20016;-45
2022/08/22 04:45:18;;;;;;;3.92;1.65;;;12.30;99.90;;;;;;5070407;28;20044;-47
2022/08/22 04:47:47;;;;;;;4.40;2.10;;;12.20;99.90;;;;;;5071081;28;20025;-43
2022/08/22 04:50:20;;;;;;;3.42;2.10;;;12.20;99.90;;;;;;5070989;28;20078;-45
2022/08/22 04:53:12;;;;;;;4.75;2.30;;;12.20;99.90;;;;;;5070925;28;20021;-46
2022/08/22 04:55:46;;;;;;;4.90;2.00;;;12.10;99.90;;;;;;5052377;28;20047;-48
2022/08/22 04:58:29;;;;;;;4.93;2.30;;;12.10;99.90;;;;;;5070950;28;20028;-56
2022/08/22 05:01:15;;;;;;;6.35;1.92;;;12.10;99.90;;;;;;5070885;28;20017;-45
2022/08/22 05:04:00;;;;;;;5.68;2.10;;;12.10;99.90;;;;;;5070742;28;20037;-46
2022/08/22 05:06:29;;;;;;;5.72;2.58;;;12.00;99.90;;;;;;5059596;28;20028;-47
2022/08/22 05:08:59;;;;;;;5.50;2.35;;;12.10;99.90;;;;;;5070806;28;20028;-42
2022/08/22 05:11:26;;;;;;;10.30;3.03;;;12.10;99.90;;;;;;5070900;28;20104;-49
2022/08/22 05:13:56;;;;;;;10.02;3.65;;;12.10;99.90;;;;;;5070882;28;20025;-45
2022/08/22 05:16:33;;;;;;;6.93;2.72;;;12.20;99.90;;;;;;5070792;28;20062;-45
2022/08/22 05:19:04;;;;;;;11.25;3.08;;;12.20;99.90;;;;;;5070846;28;20024;-50
2022/08/22 05:21:35;;;;;;;5.40;2.17;;;12.20;99.90;;;;;;5068335;28;20060;-42
2022/08/22 05:24:10;;;;;;;5.30;2.22;;;12.30;99.90;;;;;;5070516;28;20108;-42
2022/08/22 05:26:42;;;;;;;7.95;2.85;;;12.20;99.90;;;;;;5069129;28;20028;-52
2022/08/22 05:29:12;;;;;;;9.82;2.80;;;12.30;99.90;;;;;;5070575;28;20099;-45
2022/08/22 05:31:50;;;;;;;7.95;3.00;;;12.40;99.90;;;;;;5069473;28;20046;-54
2022/08/22 05:34:21;;;;;;;5.10;2.25;;;12.40;99.90;;;;;;5070616;28;20024;-46
2022/08/22 05:37:01;;;;;;;7.30;2.17;;;12.50;99.90;;;;;;5070422;28;20111;-48
2022/08/22 05:39:28;;;;;;;9.60;2.50;;;12.40;99.90;;;;;;5070628;28;20178;-50
2022/08/22 05:42:00;;;;;;;7.50;3.08;;;12.50;99.90;;;;;;5070625;28;20028;-44
2022/08/22 05:44:31;;;;;;;7.72;2.58;;;12.60;99.90;;;;;;5069048;28;20044;-47
2022/08/22 05:47:01;;;;;;;7.30;3.25;;;12.60;99.90;;;;;;5070410;28;20052;-42
2022/08/22 05:49:45;;;;;;;5.82;2.97;;;12.70;99.90;;;;;;5070210;28;20012;-49
2022/08/22 05:52:35;;;;;;;7.28;2.78;;;12.70;99.90;;;;;;5060401;28;20029;-48
2022/08/22 05:55:18;;;;;;;6.28;2.80;;;12.80;99.90;;;;;;5071125;28;20475;-52
2022/08/22 05:57:49;;;;;;;7.60;2.67;;;12.80;99.90;;;;;;5074022;28;20043;-49
2022/08/22 06:00:20;;;;;;;4.63;2.50;;;12.90;99.90;;;;;;5065822;28;20021;-53
2022/08/22 06:02:53;;;;;;;6.30;2.67;;;12.90;99.90;;;;;;5074058;28;20024;-44
2022/08/22 06:05:29;;;;;;;9.10;3.30;;;12.80;99.90;;;;;;5073965;28;20020;-47
2022/08/22 06:08:06;;;;;;;5.15;2.35;;;12.80;99.90;;;;;;5073921;28;20028;-49
2022/08/22 06:10:49;;;;;;;5.75;3.28;;;12.80;99.90;;;;;;5074246;28;20085;-51
2022/08/22 06:13:33;;;;;;;4.40;2.50;;;12.80;99.90;;;;;;5073814;28;20028;-44
2022/08/22 06:16:10;;;;;;;4.95;2.40;;;13.00;99.90;;;;;;5073598;28;20032;-51
2022/08/22 06:18:39;;;;;;;5.55;2.80;;;13.10;99.90;;;;;;5073581;28;20035;-50
2022/08/22 06:21:25;;;;;;;7.17;2.83;;;13.20;99.90;;;;;;5073958;28;20024;-44
2022/08/22 06:24:01;;;;;;;7.97;2.58;;;13.40;99.90;;;;;;5070486;28;20101;-50
2022/08/22 06:26:35;;;;;;;5.20;2.70;;;13.60;99.90;;;;;;5073160;28;20066;-50
2022/08/22 06:29:02;;;;;;;7.68;2.40;;;13.80;99.90;;;;;;5059339;28;20032;-54
2022/08/22 06:31:31;;;;;;;9.20;3.00;;;14.00;99.90;;;;;;5063615;28;20415;-50
2022/08/22 06:34:17;;;;;;;;;;;14.30;99.90;;;;;;5073415;28;20039;-44
2022/08/22 06:36:47;;;;;;;5.40;2.22;;;14.70;99.90;;;;;;5060841;28;19916;-51
2022/08/22 06:39:19;;;;;;;6.68;2.70;;;15.80;99.90;;;;;;5072034;28;20103;-45
2022/08/22 06:42:12;;;;;;;6.53;2.10;;;17.10;99.90;;;;;;5070826;28;20020;-51
2022/08/22 06:44:49;;;;;;;6.50;2.20;;;18.50;99.90;;;;;;5071007;28;20413;-46
2022/08/22 06:47:31;;;;;;;4.18;1.40;;;19.80;99.90;;;;;;5070155;28;20109;-48
2022/08/22 06:50:08;;;;;;;4.95;1.65;;;20.90;99.90;;;;;;5072495;28;20025;-50
2022/08/22 06:52:46;;;;;;;5.75;2.10;;;21.80;99.90;;;;;;5072771;28;20169;-51
2022/08/22 06:55:13;;;;;;;7.80;2.05;;;22.60;99.30;;;;;;5072000;28;20023;-44
2022/08/22 06:57:47;;;;;;;5.30;1.92;;;23.10;97.60;;;;;;5072971;28;20029;-50
2022/08/22 07:00:15;;;;;;;7.07;2.10;;;23.60;96.10;;;;;;5064258;28;20016;-44
2022/08/22 07:03:03;;;;;;;6.15;1.85;;;24.10;95.10;;;;;;5071457;28;20024;-52
2022/08/22 07:05:35;;;;;;;4.27;2.10;;;24.60;94.50;;;;;;5067399;28;20016;-43
2022/08/22 07:08:11;;;;;;;5.05;1.73;;;25.10;93.70;;;;;;5071318;28;20268;-47
2022/08/22 07:10:44;;;;;;;5.60;1.77;;;25.60;93.00;;;;;;5071888;28;20016;-50
2022/08/22 07:13:15;;;;;;;4.32;1.60;;;26.20;92.40;;;;;;5072254;28;20048;-52
2022/08/22 07:15:42;;;;;;;6.15;1.83;;;26.40;90.90;;;;;;5062185;28;20029;-45
2022/08/22 07:18:19;;;;;;;4.65;1.48;;;26.50;90.10;;;;;;5068248;28;20036;-47
2022/08/22 07:20:51;;;;;;;5.18;1.15;;;26.20;90.60;;;;;;5072793;28;20028;-49
2022/08/22 07:23:40;;;;;;;4.72;1.40;;;26.60;90.80;;;;;;5072388;28;20056;-49
2022/08/22 07:26:34;;;;;;;5.90;1.63;;;26.90;89.40;;;;;;5072659;28;20028;-48
2022/08/22 07:29:12;;;;;;;8.20;1.88;;;27.10;88.10;;;;;;5069870;28;20024;-48
2022/08/22 07:32:01;;;;;;;4.30;1.48;;;27.30;88.00;;;;;;5072316;28;20029;-47
2022/08/22 07:34:27;;;;;;;4.22;1.30;;;27.10;88.60;;;;;;5072533;28;20028;-44
2022/08/22 07:37:09;;;;;;;3.85;1.48;;;27.80;88.30;;;;;;5072139;28;20415;-48
2022/08/22 07:39:45;;;;;;;7.63;1.48;;;28.40;85.60;;;;;;5072190;28;20070;-54
2022/08/22 07:42:20;;;;;;;5.65;1.45;;;27.80;83.60;;;;;;5072021;28;20024;-48
2022/08/22 07:44:55;;;;;;;5.32;1.60;;;27.70;85.00;;;;;;5071656;28;20036;-46
2022/08/22 07:47:26;;;;;;;9.30;2.08;;;28.00;84.60;;;;;;5069257;28;20020;-46
2022/08/22 07:49:56;;;;;;;6.00;1.60;;;28.20;82.90;;;;;;5061916;28;20495;-48
2022/08/22 07:52:23;;;;;;;6.07;1.70;;;28.40;83.70;;;;;;5071947;28;20073;-50
2022/08/22 07:54:56;;;;;;;8.85;2.03;;;28.70;83.40;;;;;;5068619;28;20027;-44
2022/08/22 07:57:36;;;;;;;7.80;2.10;;;28.40;83.90;;;;;;5070324;28;20028;-45
2022/08/22 08:00:10;;;;;;;7.15;2.08;;;28.80;83.50;;;;;;5071869;28;20059;-50
2022/08/22 08:02:37;;;;;;;8.60;2.40;;;29.10;81.90;;;;;;5066383;28;20487;-48
2022/08/22 08:05:04;;;;;;;7.47;2.00;;;29.20;81.30;;;;;;5071732;28;20036;-45
2022/08/22 08:07:31;;;;;;;7.72;2.17;;;29.40;81.40;;;;;;5071190;28;20499;-52
2022/08/22 08:10:04;;;;;;;8.32;2.00;;;29.30;80.70;;;;;;5071508;28;20097;-52
2022/08/22 08:12:40;;;;;;;5.80;2.10;;;29.50;80.70;;;;;;5071705;28;20020;-50
2022/08/22 08:15:13;;;;;;;6.78;1.98;;;29.90;81.10;;;;;;5071550;28;20027;-45
2022/08/22 08:17:39;;;;;;;6.53;1.90;;;29.80;79.60;;;;;;5071601;28;20040;-44
2022/08/22 08:20:10;;;;;;;7.70;1.88;;;29.90;80.60;;;;;;5071471;28;20049;-46
2022/08/22 08:22:38;;;;;;;6.47;1.63;;;30.20;78.60;;;;;;5070273;28;20051;-45
2022/08/22 08:25:06;;;;;;;8.45;1.90;;;30.70;78.10;;;;;;5071197;28;20222;-49
2022/08/22 08:30:45;;;;;;;7.80;1.73;;;31.20;72.20;;;;;;5071111;28;20073;-52
2022/08/22 08:33:17;;;;;;;9.45;1.92;;;30.60;73.80;;;;;;5070869;28;20082;-50
2022/08/22 08:35:49;;;;;;;7.53;1.90;;;30.10;74.30;;;;;;5060127;28;20108;-48
2022/08/22 08:38:26;;;;;;;5.63;1.63;;;30.00;74.60;;;;;;5054734;28;20039;-48
2022/08/22 08:40:54;;;;;;;7.43;1.70;;;30.00;74.70;;;;;;5071219;28;20067;-49
2022/08/22 08:43:36;;;;;;;;;;;29.00;75.40;;;;;;5071732;28;20016;-53
2022/08/22 08:46:24;;;;;;;8.25;1.90;;;28.90;76.40;;;;;;5057807;28;19923;-50
2022/08/22 08:49:25;;;;;;;7.05;1.73;;;28.00;77.50;;;;;;5065627;28;20385;-50
2022/08/22 08:52:08;;;;;;;11.15;2.25;;;27.10;80.90;;;;;;5070527;28;20047;-51
2022/08/22 08:55:05;;;;;;;7.35;1.65;;;27.10;82.20;;;;;;5070950;28;20021;-45
2022/08/22 08:58:01;;;;;;;7.63;2.20;;;26.80;82.80;;;;;;5070612;28;20538;-46
2022/08/22 09:00:49;;;;;;;7.53;2.40;;;26.40;85.00;;;;;;5070894;28;20048;-47
2022/08/22 09:03:39;;;;;;;9.80;2.25;;;25.50;87.30;;;;;;5066339;28;20020;-48
2022/08/22 09:06:39;;;;;;;8.85;1.80;;;25.10;90.40;;;;;;5070185;28;20025;-53
2022/08/22 09:09:07;;;;;;;7.88;1.88;;;24.60;90.90;;;;;;5069293;28;20112;-52
2022/08/22 09:12:07;;;;;;;8.57;1.95;;;23.80;92.20;;;;;;5065877;28;20025;-51
2022/08/22 09:14:51;;;;;;;5.88;1.88;;;23.20;93.80;;;;;;5070380;28;20111;-50
2022/08/22 09:17:43;;;;;;;8.50;1.90;;;22.90;94.40;;;;;;5068054;28;20126;-47
2022/08/22 09:20:30;;;;;;;8.15;1.70;;;22.60;95.60;;;;;;5069575;28;20027;-44
2022/08/22 09:23:05;;;;;;;10.75;2.55;;;22.70;96.10;;;;;;5067266;28;20033;-54
2022/08/22 09:25:37;;;;;;;6.97;1.40;;;23.10;95.70;;;;;;5066007;28;20055;-53
2022/08/22 09:28:36;;;;;;;6.63;1.77;;;23.80;95.40;;;;;;5067391;28;20021;-44
2022/08/22 09:31:07;;;;;;;;;;;24.50;94.30;;;;;;5071517;28;20064;-48
2022/08/22 09:34:03;;;;;;;5.30;1.23;;;25.00;92.80;;;;;;5071427;28;20274;-45
2022/08/22 09:37:00;;;;;;;6.40;1.38;;;25.40;91.50;;;;;;5067768;28;20048;-48
2022/08/22 09:39:58;;;;;;;5.43;1.00;;;25.90;90.70;;;;;;5068095;28;20035;-54
2022/08/22 09:42:41;;;;;;;5.17;1.10;;;26.20;90.10;;;;;;5036472;28;20536;-52
2022/08/22 09:45:27;;;;;;;5.03;1.13;;;26.10;89.90;;;;;;5073050;28;20420;-49
2022/08/22 09:48:06;;;;;;;5.10;1.08;;;25.70;89.50;;;;;;5068531;28;20078;-48
2022/08/22 09:50:51;;;;;;;;;;;25.20;90.00;;;;;;5070052;28;20023;-54
2022/08/22 09:53:28;;;;;;;5.00;1.10;;;24.90;90.80;;;;;;5069074;28;19911;-51
2022/08/22 09:56:29;;;;;;;4.22;1.30;;;24.50;91.20;;;;;;5071668;28;20023;-55
2022/08/22 09:59:23;;;;;;;4.68;1.52;;;24.40;92.00;;;;;;5049101;28;20040;-53
2022/08/22 10:02:05;;;;;;;7.78;1.48;;;24.40;90.80;;;;;;5067826;28;20119;-50
2022/08/22 10:05:10;;;;;;;5.57;1.38;;;24.40;91.40;;;;;;5063124;28;20468;-51
2022/08/22 10:07:55;;;;;;;5.57;1.58;;;24.40;91.00;;;;;;5068607;28;20479;-47
2022/08/22 10:10:58;;;;;;;5.70;1.35;;;24.30;90.60;;;;;;5061789;28;20024;-45
2022/08/22 10:13:27;;;;;;;4.07;1.10;;;24.20;91.10;;;;;;5062065;28;20524;-52
2022/08/22 10:16:11;;;;;;;4.57;1.50;;;24.00;92.30;;;;;;5072990;28;20055;-52
2022/08/22 10:18:48;;;;;;;5.43;1.10;;;24.10;91.10;;;;;;5069677;28;20266;-45
2022/08/22 10:21:19;;;;;;;4.70;1.20;;;23.80;91.40;;;;;;5067355;28;20491;-53
2022/08/22 10:23:53;;;;;;;4.18;1.00;;;23.60;92.10;;;;;;5072710;28;20016;-52
2022/08/22 10:26:28;;;;;;;6.57;1.27;;;23.60;92.20;;;;;;5072791;28;20027;-51
2022/08/22 10:29:23;;;;;;;5.18;1.00;;;23.40;92.40;;;;;;5070053;28;20034;-47
2022/08/22 10:31:56;;;;;;;4.78;1.00;;;23.30;92.70;;;;;;5083505;28;20021;-51
2022/08/22 10:34:28;;;;;;;6.53;1.10;;;23.60;93.60;;;;;;5063482;28;20365;-48
2022/08/22 10:36:57;;;;;;;6.43;1.70;;;24.10;92.30;;;;;;5064898;28;20044;-48
2022/08/22 10:39:28;;;;;;;6.10;1.70;;;24.60;91.30;;;;;;5063251;28;20043;-48
2022/08/22 10:42:06;;;;;;;8.93;1.63;;;25.40;90.50;;;;;;5063422;28;20063;-49
2022/08/22 10:45:09;;;;;;;4.93;1.25;;;26.70;90.20;;;;;;5064447;28;20040;-46
2022/08/22 10:47:42;;;;;;;6.10;1.20;;;27.40;84.40;;;;;;5060556;28;20032;-47
2022/08/22 10:50:25;;;;;;;5.32;1.35;;;28.10;81.80;;;;;;5062017;28;20017;-46
2022/08/22 10:55:48;;;;;;;5.88;1.45;;;28.40;75.70;;;;;;5069531;28;20069;-45
2022/08/22 10:58:24;;;;;;;2.95;1.15;;;28.50;78.10;;;;;;5072927;28;20029;-52
2022/08/22 11:01:01;;;;;;;4.30;1.23;;;28.50;77.00;;;;;;5069189;28;20042;-50
2022/08/22 11:03:40;;;;;;;4.40;1.38;;;28.50;78.90;;;;;;5070836;28;20077;-53
2022/08/22 11:06:12;;;;;;;;;;;28.90;77.20;;;;;;5073831;28;20359;-49
2022/08/22 11:08:38;;;;;;;5.38;1.63;;;28.80;74.30;;;;;;5078583;28;20280;-52
2022/08/22 11:11:18;;;;;;;3.88;1.00;;;28.40;75.40;;;;;;5072936;28;20377;-47
2022/08/22 11:13:52;;;;;;;5.63;1.38;;;27.90;77.40;;;;;;5069187;28;20021;-49
2022/08/22 11:16:27;;;;;;;3.88;1.20;;;27.80;78.60;;;;;;5074107;28;20500;-46
2022/08/22 11:19:07;;;;;;;8.65;1.60;;;27.60;82.70;;;;;;5072287;28;20028;-50
2022/08/22 11:21:59;;;;;;;4.70;1.50;;;27.60;82.10;;;;;;5071142;28;20050;-50
2022/08/22 11:24:30;;;;;;;4.22;1.40;;;27.20;80.30;;;;;;5072509;28;20068;-51
2022/08/22 11:26:56;;;;;;;5.85;1.75;;;26.90;81.80;;;;;;5067723;28;20020;-49
2022/08/22 11:29:39;;;;;;;4.78;1.70;;;26.70;84.50;;;;;;5072557;28;20055;-50
2022/08/22 11:32:23;;;;;;;6.30;2.17;;;26.20;83.40;;;;;;5080045;28;20021;-50
2022/08/22 11:34:49;;;;;;;5.95;1.80;;;25.60;84.40;;;;;;5072607;28;20029;-45
2022/08/22 11:37:21;;;;;;;7.05;2.30;;;24.80;87.60;;;;;;5068601;28;20047;-47
2022/08/22 11:40:06;;;;;;;7.43;2.50;;;24.50;90.60;;;;;;5062810;28;20024;-47
2022/08/22 11:43:09;;;;;;;6.60;2.15;;;24.60;91.40;;;;;;5068171;28;20483;-48
2022/08/22 11:45:44;;;;;;;6.22;2.30;;;24.30;90.50;;;;;;5044466;28;20068;-49
2022/08/22 11:48:12;;;;;;;8.38;2.58;;;24.20;91.70;;;;;;5067722;28;20056;-49
2022/08/22 11:51:04;;;;;;;10.15;4.00;;;24.20;91.10;;;;;;5068434;28;20077;-47
2022/08/22 11:53:37;;;;;;;9.02;3.00;;;24.20;91.40;;;;;;5068171;28;20050;-54
2022/08/22 11:56:11;;;;;;;10.35;3.17;;;24.10;91.10;;;;;;5069334;28;20045;-53
2022/08/22 11:58:53;;;;;;;6.10;2.25;;;23.90;92.50;;;;;;5068072;28;20034;-50
2022/08/22 12:01:27;;;;;;;8.55;2.65;;;23.90;92.00;;;;;;5068247;28;20028;-48
2022/08/22 12:04:01;;;;;;;6.55;2.50;;;24.00;92.90;;;;;;5068321;28;20194;-48
2022/08/22 12:06:48;;;;;;;9.18;2.72;;;24.10;91.90;;;;;;5064654;28;20017;-49
2022/08/22 12:09:27;;;;;;;7.18;1.92;;;24.60;92.00;;;;;;5069194;28;20081;-49
2022/08/22 12:11:59;;;;;;;5.03;1.80;;;25.20;91.60;;;;;;5069520;28;20027;-49
2022/08/22 12:14:34;;;;;;;6.80;2.33;;;25.50;90.50;;;;;;5069179;28;20555;-48
2022/08/22 12:17:26;;;;;;;6.00;1.75;;;25.50;90.00;;;;;;5068489;28;20040;-50
2022/08/22 12:20:06;;;;;;;7.15;2.00;;;25.60;90.80;;;;;;5058393;28;20029;-46
2022/08/22 12:22:43;;;;;;;5.90;1.83;;;26.10;90.50;;;;;;5055433;28;20100;-46
2022/08/22 12:25:30;;;;;;;7.70;1.80;;;26.60;88.70;;;;;;5059858;28;20062;-49
2022/08/22 12:28:24;;;;;;;4.95;1.98;;;26.50;85.90;;;;;;5061831;28;20042;-44
2022/08/22 12:31:07;;;;;;;4.20;1.60;;;25.80;87.10;;;;;;5070169;28;20032;-48
2022/08/22 12:33:54;;;;;;;5.68;1.95;;;25.70;90.50;;;;;;5064153;28;20025;-49
2022/08/22 12:36:45;;;;;;;5.18;2.10;;;25.80;90.00;;;;;;5065965;28;20017;-52
2022/08/22 12:39:49;;;;;;;5.38;1.80;;;25.70;88.10;;;;;;5071061;28;20070;-50
2022/08/22 12:42:37;;;;;;;4.88;1.60;;;25.20;90.70;;;;;;5065016;28;20024;-48
2022/08/22 12:45:18;;;;;;;4.63;1.60;;;25.30;90.80;;;;;;5070039;28;20059;-52
2022/08/22 12:47:58;;;;;;;3.90;1.48;;;25.50;90.10;;;;;;5068192;28;20024;-52
2022/08/22 12:50:40;;;;;;;6.28;1.20;;;25.70;90.20;;;;;;5052865;28;20032;-50
2022/08/22 12:53:19;;;;;;;5.43;1.63;;;25.40;89.60;;;;;;5069522;28;20023;-54
2022/08/22 12:56:22;;;;;;;3.88;1.15;;;25.60;90.60;;;;;;5069089;28;20559;-49
2022/08/22 12:59:11;;;;;;;3.47;1.10;;;25.60;88.00;;;;;;5069696;28;20475;-51
2022/08/22 13:01:44;;;;;;;5.10;1.52;;;25.20;90.40;;;;;;5058065;28;20061;-46
2022/08/22 13:04:16;;;;;;;9.40;1.50;;;25.20;90.50;;;;;;5066130;28;20021;-50
2022/08/22 13:06:49;;;;;;;4.72;1.60;;;25.20;89.50;;;;;;5068989;28;20111;-44
2022/08/22 13:09:36;;;;;;;6.95;1.95;;;25.70;91.10;;;;;;5064759;28;20025;-48
2022/08/22 13:12:17;;;;;;;2.95;1.20;;;26.00;88.60;;;;;;5064644;28;20086;-44
2022/08/22 13:14:44;;;;;;;4.00;1.30;;;26.10;86.40;;;;;;5070562;28;20036;-47
2022/08/22 13:17:16;;;;;;;5.40;1.30;;;25.50;87.10;;;;;;5070633;28;20077;-49
2022/08/22 13:20:08;;;;;;;5.65;1.60;;;25.20;90.40;;;;;;5070357;28;20024;-47
2022/08/22 13:22:37;;;;;;;7.35;1.70;;;25.30;90.40;;;;;;5070142;28;20039;-43
2022/08/22 13:25:16;;;;;;;6.38;2.05;;;25.30;88.70;;;;;;5069972;28;20102;-48
2022/08/22 13:27:49;;;;;;;7.03;1.70;;;25.10;90.60;;;;;;5070276;28;20021;-45
2022/08/22 13:30:20;;;;;;;5.85;1.60;;;25.00;90.40;;;;;;5068680;28;20081;-52
2022/08/22 13:33:23;;;;;;;7.25;1.60;;;25.30;88.40;;;;;;5070211;28;20491;-46
2022/08/22 13:35:54;;;;;;;5.60;1.65;;;25.50;88.40;;;;;;5057671;28;20060;-51
2022/08/22 13:38:32;;;;;;;8.30;1.80;;;25.60;89.70;;;;;;5070327;28;20361;-52
2022/08/22 13:41:00;;;;;;;7.00;1.70;;;25.60;89.70;;;;;;5069756;28;20040;-46
2022/08/22 13:43:54;;;;;;;9.20;1.60;;;25.70;89.80;;;;;;5068300;28;20063;-50
2022/08/22 13:46:29;;;;;;;7.20;1.92;;;25.70;89.40;;;;;;5048208;28;20041;-49
2022/08/22 13:48:58;;;;;;;8.45;1.60;;;25.70;87.80;;;;;;5068383;28;20068;-46
2022/08/22 13:51:24;;;;;;;7.20;1.70;;;25.30;87.90;;;;;;5068396;28;20016;-52
2022/08/22 13:54:01;;;;;;;6.97;1.48;;;25.10;89.10;;;;;;5068261;28;20081;-46
2022/08/22 13:57:05;;;;;;;6.07;1.50;;;24.60;89.40;;;;;;5068949;28;20036;-47
2022/08/22 13:59:59;;;;;;;5.60;1.80;;;24.50;90.50;;;;;;5069756;28;20021;-51
2022/08/22 14:02:46;;;;;;;7.72;1.65;;;24.40;90.70;;;;;;5069886;28;20383;-45